sensor_id;sensor_type;location;lat;lon;timestamp;P1;durP1;ratioP1;P2;durP2;ratioP2
61385;SDS011;47256;18.904;-99.054;2022-09-20T00:01:27;11.88;;;7.78;;
61385;SDS011;47256;18.904;-99.054;2022-09-20T00:03:58;24.10;;;8.98;;
61385;SDS011;47256;18.904;-99.054;2022-09-20T00:06:30;11.73;;;7.75;;
61385;SDS011;47256;18.904;-99.054;2022-09-20T00:08:58;12.68;;;8.52;;
61385;SDS011;47256;18.904;-99.054;2022-09-20T00:11:29;20.23;;;11.02;;
61385;SDS011;47256;18.904;-99.054;2022-09-20T00:13:58;21.75;;;14.75;;
61385;SDS011;47256;18.904;-99.054;2022-09-20T00:16:28;16.52;;;11.55;;
61385;SDS011;47256;18.904;-99.054;2022-09-20T00:18:59;18.05;;;11.30;;
61385;SDS011;47256;18.904;-99.054;2022-09-20T00:21:32;15.20;;;11.10;;
61385;SDS011;47256;18.904;-99.054;2022-09-20T00:24:02;17.98;;;10.07;;
61385;SDS011;47256;18.904;-99.054;2022-09-20T00:26:31;23.75;;;11.10;;
61385;SDS011;47256;18.904;-99.054;2022-09-20T00:28:59;15.25;;;8.75;;
61385;SDS011;47256;18.904;-99.054;2022-09-20T00:31:27;15.30;;;8.13;;
61385;SDS011;47256;18.904;-99.054;2022-09-20T00:33:55;22.60;;;9.85;;
61385;SDS011;47256;18.904;-99.054;2022-09-20T00:36:43;18.33;;;9.32;;
61385;SDS011;47256;18.904;-99.054;2022-09-20T00:39:12;16.30;;;11.30;;
61385;SDS011;47256;18.904;-99.054;2022-09-20T00:41:41;21.73;;;9.65;;
61385;SDS011;47256;18.904;-99.054;2022-09-20T00:47:20;15.60;;;7.80;;
61385;SDS011;47256;18.904;-99.054;2022-09-20T00:49:49;26.77;;;9.55;;
61385;SDS011;47256;18.904;-99.054;2022-09-20T00:52:20;11.82;;;8.55;;
61385;SDS011;47256;18.904;-99.054;2022-09-20T00:54:50;18.90;;;8.43;;
61385;SDS011;47256;18.904;-99.054;2022-09-20T00:57:18;15.30;;;8.75;;
61385;SDS011;47256;18.904;-99.054;2022-09-20T00:59:47;18.88;;;9.98;;
61385;SDS011;47256;18.904;-99.054;2022-09-20T01:02:20;14.90;;;8.63;;
61385;SDS011;47256;18.904;-99.054;2022-09-20T01:04:53;25.05;;;10.68;;
61385;SDS011;47256;18.904;-99.054;2022-09-20T01:07:24;12.73;;;8.82;;
61385;SDS011;47256;18.904;-99.054;2022-09-20T01:09:53;11.30;;;8.63;;
61385;SDS011;47256;18.904;-99.054;2022-09-20T01:12:24;16.60;;;9.98;;
61385;SDS011;47256;18.904;-99.054;2022-09-20T01:14:54;17.88;;;9.88;;
61385;SDS011;47256;18.904;-99.054;2022-09-20T01:17:25;20.38;;;10.20;;
61385;SDS011;47256;18.904;-99.054;2022-09-20T01:22:43;20.88;;;9.38;;
61385;SDS011;47256;18.904;-99.054;2022-09-20T01:28:33;22.48;;;9.80;;
61385;SDS011;47256;18.904;-99.054;2022-09-20T01:31:08;22.02;;;9.82;;
61385;SDS011;47256;18.904;-99.054;2022-09-20T01:33:52;22.95;;;9.27;;
61385;SDS011;47256;18.904;-99.054;2022-09-20T01:39:26;15.95;;;10.07;;
61385;SDS011;47256;18.904;-99.054;2022-09-20T01:42:20;16.33;;;11.50;;
61385;SDS011;47256;18.904;-99.054;2022-09-20T01:47:47;21.02;;;10.05;;
61385;SDS011;47256;18.904;-99.054;2022-09-20T01:53:14;19.27;;;9.02;;
61385;SDS011;47256;18.904;-99.054;2022-09-20T02:05:46;13.65;;;8.95;;
61385;SDS011;47256;18.904;-99.054;2022-09-20T02:16:35;14.32;;;8.25;;
61385;SDS011;47256;18.904;-99.054;2022-09-20T02:22:59;10.48;;;5.57;;
61385;SDS011;47256;18.904;-99.054;2022-09-20T02:25:33;11.32;;;6.43;;
61385;SDS011;47256;18.904;-99.054;2022-09-20T02:28:25;10.27;;;5.90;;
61385;SDS011;47256;18.904;-99.054;2022-09-20T02:31:38;10.55;;;6.13;;
61385;SDS011;47256;18.904;-99.054;2022-09-20T02:38:17;11.20;;;4.60;;
61385;SDS011;47256;18.904;-99.054;2022-09-20T02:46:17;8.07;;;4.28;;
61385;SDS011;47256;18.904;-99.054;2022-09-20T02:48:57;10.75;;;4.63;;
61385;SDS011;47256;18.904;-99.054;2022-09-20T02:51:56;10.40;;;4.07;;
61385;SDS011;47256;18.904;-99.054;2022-09-20T03:00:17;13.38;;;4.32;;
61385;SDS011;47256;18.904;-99.054;2022-09-20T03:02:59;9.57;;;3.80;;
61385;SDS011;47256;18.904;-99.054;2022-09-20T03:08:27;8.57;;;4.20;;
61385;SDS011;47256;18.904;-99.054;2022-09-20T03:11:26;12.30;;;4.07;;
61385;SDS011;47256;18.904;-99.054;2022-09-20T03:19:38;17.00;;;4.25;;
61385;SDS011;47256;18.904;-99.054;2022-09-20T03:25:26;8.82;;;4.35;;
61385;SDS011;47256;18.904;-99.054;2022-09-20T03:28:13;10.55;;;3.97;;
61385;SDS011;47256;18.904;-99.054;2022-09-20T03:33:37;13.98;;;4.38;;
61385;SDS011;47256;18.904;-99.054;2022-09-20T03:39:23;12.27;;;5.28;;
61385;SDS011;47256;18.904;-99.054;2022-09-20T03:44:45;10.15;;;5.25;;
61385;SDS011;47256;18.904;-99.054;2022-09-20T03:50:31;18.55;;;4.90;;
61385;SDS011;47256;18.904;-99.054;2022-09-20T03:56:03;10.40;;;4.65;;
61385;SDS011;47256;18.904;-99.054;2022-09-20T04:02:23;12.90;;;5.07;;
61385;SDS011;47256;18.904;-99.054;2022-09-20T04:05:06;6.53;;;4.55;;
61385;SDS011;47256;18.904;-99.054;2022-09-20T04:14:00;7.30;;;3.15;;
61385;SDS011;47256;18.904;-99.054;2022-09-20T04:16:52;9.15;;;3.03;;
61385;SDS011;47256;18.904;-99.054;2022-09-20T04:22:15;15.23;;;3.50;;
61385;SDS011;47256;18.904;-99.054;2022-09-20T04:25:26;6.13;;;2.45;;
61385;SDS011;47256;18.904;-99.054;2022-09-20T04:27:50;3.97;;;2.28;;
61385;SDS011;47256;18.904;-99.054;2022-09-20T04:30:32;10.00;;;2.35;;
61385;SDS011;47256;18.904;-99.054;2022-09-20T04:33:12;6.50;;;2.65;;
61385;SDS011;47256;18.904;-99.054;2022-09-20T04:38:50;5.85;;;2.83;;
61385;SDS011;47256;18.904;-99.054;2022-09-20T04:41:37;9.38;;;2.47;;
61385;SDS011;47256;18.904;-99.054;2022-09-20T04:44:35;14.40;;;2.38;;
61385;SDS011;47256;18.904;-99.054;2022-09-20T04:53:22;10.57;;;2.67;;
61385;SDS011;47256;18.904;-99.054;2022-09-20T04:59:07;4.95;;;2.33;;
61385;SDS011;47256;18.904;-99.054;2022-09-20T05:07:55;6.50;;;2.30;;
61385;SDS011;47256;18.904;-99.054;2022-09-20T05:16:14;5.68;;;2.28;;
61385;SDS011;47256;18.904;-99.054;2022-09-20T05:19:15;9.25;;;2.50;;
61385;SDS011;47256;18.904;-99.054;2022-09-20T05:33:32;3.75;;;2.45;;
61385;SDS011;47256;18.904;-99.054;2022-09-20T05:36:25;6.25;;;1.92;;
61385;SDS011;47256;18.904;-99.054;2022-09-20T05:58:54;5.30;;;1.85;;
61385;SDS011;47256;18.904;-99.054;2022-09-20T06:02:17;3.42;;;2.58;;
61385;SDS011;47256;18.904;-99.054;2022-09-20T06:04:41;2.63;;;1.77;;
61385;SDS011;47256;18.904;-99.054;2022-09-20T06:07:49;8.32;;;2.22;;
61385;SDS011;47256;18.904;-99.054;2022-09-20T06:10:53;2.42;;;1.63;;
61385;SDS011;47256;18.904;-99.054;2022-09-20T06:27:08;5.10;;;2.13;;
61385;SDS011;47256;18.904;-99.054;2022-09-20T06:29:42;5.30;;;1.92;;
61385;SDS011;47256;18.904;-99.054;2022-09-20T06:32:16;4.80;;;1.83;;
61385;SDS011;47256;18.904;-99.054;2022-09-20T06:34:43;6.05;;;2.45;;
61385;SDS011;47256;18.904;-99.054;2022-09-20T06:37:19;10.82;;;2.30;;
61385;SDS011;47256;18.904;-99.054;2022-09-20T06:40:26;8.88;;;2.50;;
61385;SDS011;47256;18.904;-99.054;2022-09-20T06:43:25;9.45;;;2.50;;
61385;SDS011;47256;18.904;-99.054;2022-09-20T06:45:54;8.52;;;2.35;;
61385;SDS011;47256;18.904;-99.054;2022-09-20T06:48:23;4.13;;;2.55;;
61385;SDS011;47256;18.904;-99.054;2022-09-20T06:50:53;12.02;;;2.85;;
61385;SDS011;47256;18.904;-99.054;2022-09-20T07:29:23;12.65;;;2.83;;
61385;SDS011;47256;18.904;-99.054;2022-09-20T07:31:51;10.75;;;3.38;;
61385;SDS011;47256;18.904;-99.054;2022-09-20T07:34:20;4.05;;;2.83;;
61385;SDS011;47256;18.904;-99.054;2022-09-20T07:36:52;8.43;;;3.05;;
61385;SDS011;47256;18.904;-99.054;2022-09-20T07:39:19;10.52;;;3.95;;
61385;SDS011;47256;18.904;-99.054;2022-09-20T07:41:46;10.02;;;3.03;;
61385;SDS011;47256;18.904;-99.054;2022-09-20T07:44:16;8.45;;;3.42;;
61385;SDS011;47256;18.904;-99.054;2022-09-20T07:46:51;8.27;;;3.30;;
61385;SDS011;47256;18.904;-99.054;2022-09-20T07:49:19;13.13;;;3.78;;
61385;SDS011;47256;18.904;-99.054;2022-09-20T07:51:48;7.97;;;3.55;;
61385;SDS011;47256;18.904;-99.054;2022-09-20T07:54:16;16.48;;;3.40;;
61385;SDS011;47256;18.904;-99.054;2022-09-20T07:56:45;6.88;;;2.97;;
61385;SDS011;47256;18.904;-99.054;2022-09-20T07:59:12;7.07;;;3.97;;
61385;SDS011;47256;18.904;-99.054;2022-09-20T08:01:40;8.45;;;3.58;;
61385;SDS011;47256;18.904;-99.054;2022-09-20T08:04:10;3.58;;;2.70;;
61385;SDS011;47256;18.904;-99.054;2022-09-20T08:06:39;5.20;;;3.55;;
61385;SDS011;47256;18.904;-99.054;2022-09-20T08:09:08;8.68;;;3.75;;
61385;SDS011;47256;18.904;-99.054;2022-09-20T08:11:36;8.05;;;3.20;;
61385;SDS011;47256;18.904;-99.054;2022-09-20T08:14:06;14.52;;;3.45;;
61385;SDS011;47256;18.904;-99.054;2022-09-20T08:16:38;16.60;;;5.13;;
61385;SDS011;47256;18.904;-99.054;2022-09-20T08:19:10;13.98;;;3.42;;
61385;SDS011;47256;18.904;-99.054;2022-09-20T08:21:41;9.68;;;3.50;;
61385;SDS011;47256;18.904;-99.054;2022-09-20T08:24:10;5.55;;;3.45;;
61385;SDS011;47256;18.904;-99.054;2022-09-20T08:26:39;9.23;;;2.92;;
61385;SDS011;47256;18.904;-99.054;2022-09-20T08:29:06;4.82;;;3.25;;
61385;SDS011;47256;18.904;-99.054;2022-09-20T08:31:36;10.18;;;3.60;;
61385;SDS011;47256;18.904;-99.054;2022-09-20T08:34:05;5.40;;;3.35;;
61385;SDS011;47256;18.904;-99.054;2022-09-20T08:36:40;8.90;;;3.38;;
61385;SDS011;47256;18.904;-99.054;2022-09-20T08:39:12;14.55;;;3.75;;
61385;SDS011;47256;18.904;-99.054;2022-09-20T08:41:47;12.43;;;3.15;;
61385;SDS011;47256;18.904;-99.054;2022-09-20T08:44:37;19.10;;;4.43;;
61385;SDS011;47256;18.904;-99.054;2022-09-20T08:47:21;11.23;;;4.00;;
61385;SDS011;47256;18.904;-99.054;2022-09-20T08:49:52;7.93;;;3.70;;
61385;SDS011;47256;18.904;-99.054;2022-09-20T08:52:27;15.07;;;4.25;;
61385;SDS011;47256;18.904;-99.054;2022-09-20T08:55:00;10.38;;;5.00;;
61385;SDS011;47256;18.904;-99.054;2022-09-20T08:57:30;10.30;;;4.32;;
61385;SDS011;47256;18.904;-99.054;2022-09-20T09:00:02;10.45;;;5.60;;
61385;SDS011;47256;18.904;-99.054;2022-09-20T09:02:31;11.05;;;5.25;;
61385;SDS011;47256;18.904;-99.054;2022-09-20T09:04:59;12.70;;;4.80;;
61385;SDS011;47256;18.904;-99.054;2022-09-20T09:07:28;14.75;;;4.57;;
61385;SDS011;47256;18.904;-99.054;2022-09-20T09:09:55;11.27;;;4.70;;
61385;SDS011;47256;18.904;-99.054;2022-09-20T09:12:26;14.85;;;3.45;;
61385;SDS011;47256;18.904;-99.054;2022-09-20T09:15:00;12.73;;;3.78;;
61385;SDS011;47256;18.904;-99.054;2022-09-20T09:17:47;13.35;;;3.80;;
61385;SDS011;47256;18.904;-99.054;2022-09-20T09:20:18;15.15;;;4.25;;
61385;SDS011;47256;18.904;-99.054;2022-09-20T09:22:58;8.93;;;3.55;;
61385;SDS011;47256;18.904;-99.054;2022-09-20T09:25:36;9.35;;;3.22;;
61385;SDS011;47256;18.904;-99.054;2022-09-20T09:30:35;7.95;;;2.92;;
61385;SDS011;47256;18.904;-99.054;2022-09-20T09:33:16;12.63;;;3.22;;
61385;SDS011;47256;18.904;-99.054;2022-09-20T09:36:06;15.88;;;3.40;;
61385;SDS011;47256;18.904;-99.054;2022-09-20T09:38:41;12.57;;;3.65;;
61385;SDS011;47256;18.904;-99.054;2022-09-20T09:43:57;8.30;;;3.28;;
61385;SDS011;47256;18.904;-99.054;2022-09-20T09:46:33;8.73;;;3.40;;
61385;SDS011;47256;18.904;-99.054;2022-09-20T09:49:08;9.43;;;3.53;;
61385;SDS011;47256;18.904;-99.054;2022-09-20T09:54:35;12.95;;;3.47;;
61385;SDS011;47256;18.904;-99.054;2022-09-20T10:13:25;10.52;;;3.45;;
61385;SDS011;47256;18.904;-99.054;2022-09-20T10:19:14;10.60;;;3.50;;
61385;SDS011;47256;18.904;-99.054;2022-09-20T10:21:27;14.80;;;2.83;;
61385;SDS011;47256;18.904;-99.054;2022-09-20T10:29:41;15.45;;;3.40;;
61385;SDS011;47256;18.904;-99.054;2022-09-20T10:35:43;15.00;;;3.33;;
61385;SDS011;47256;18.904;-99.054;2022-09-20T10:38:31;10.35;;;4.10;;
61385;SDS011;47256;18.904;-99.054;2022-09-20T10:47:49;9.50;;;2.88;;
61385;SDS011;47256;18.904;-99.054;2022-09-20T10:50:52;14.63;;;3.45;;
61385;SDS011;47256;18.904;-99.054;2022-09-20T10:57:10;12.30;;;2.72;;
61385;SDS011;47256;18.904;-99.054;2022-09-20T10:59:30;7.77;;;2.67;;
61385;SDS011;47256;18.904;-99.054;2022-09-20T11:04:55;10.13;;;3.00;;
61385;SDS011;47256;18.904;-99.054;2022-09-20T11:07:55;12.05;;;2.70;;
61385;SDS011;47256;18.904;-99.054;2022-09-20T11:10:35;7.75;;;3.00;;
61385;SDS011;47256;18.904;-99.054;2022-09-20T11:21:07;10.55;;;2.88;;
61385;SDS011;47256;18.904;-99.054;2022-09-20T11:29:17;17.15;;;3.05;;
61385;SDS011;47256;18.904;-99.054;2022-09-20T11:31:48;8.20;;;3.10;;
61385;SDS011;47256;18.904;-99.054;2022-09-20T11:34:22;9.75;;;2.80;;
61385;SDS011;47256;18.904;-99.054;2022-09-20T11:36:59;11.55;;;2.70;;
61385;SDS011;47256;18.904;-99.054;2022-09-20T11:39:38;4.82;;;2.35;;
61385;SDS011;47256;18.904;-99.054;2022-09-20T11:42:18;11.50;;;2.10;;
61385;SDS011;47256;18.904;-99.054;2022-09-20T11:44:59;8.00;;;2.83;;
61385;SDS011;47256;18.904;-99.054;2022-09-20T11:47:32;14.68;;;3.70;;
61385;SDS011;47256;18.904;-99.054;2022-09-20T11:50:33;21.38;;;3.33;;
61385;SDS011;47256;18.904;-99.054;2022-09-20T11:56:19;11.52;;;2.85;;
61385;SDS011;47256;18.904;-99.054;2022-09-20T11:58:51;15.30;;;4.05;;
61385;SDS011;47256;18.904;-99.054;2022-09-20T12:01:31;13.93;;;2.63;;
61385;SDS011;47256;18.904;-99.054;2022-09-20T12:06:37;9.18;;;2.47;;
61385;SDS011;47256;18.904;-99.054;2022-09-20T12:09:22;7.82;;;2.80;;
61385;SDS011;47256;18.904;-99.054;2022-09-20T12:15:24;12.88;;;2.67;;
61385;SDS011;47256;18.904;-99.054;2022-09-20T12:26:34;9.55;;;2.22;;
61385;SDS011;47256;18.904;-99.054;2022-09-20T12:32:01;14.18;;;2.60;;
61385;SDS011;47256;18.904;-99.054;2022-09-20T12:34:49;12.80;;;2.58;;
61385;SDS011;47256;18.904;-99.054;2022-09-20T12:37:20;7.28;;;2.40;;
61385;SDS011;47256;18.904;-99.054;2022-09-20T12:39:52;22.67;;;2.85;;
61385;SDS011;47256;18.904;-99.054;2022-09-20T12:42:27;12.15;;;2.83;;
61385;SDS011;47256;18.904;-99.054;2022-09-20T12:45:00;14.70;;;2.92;;
61385;SDS011;47256;18.904;-99.054;2022-09-20T12:47:35;13.67;;;3.30;;
61385;SDS011;47256;18.904;-99.054;2022-09-20T12:50:12;10.68;;;2.55;;
61385;SDS011;47256;18.904;-99.054;2022-09-20T12:53:00;29.75;;;2.95;;
61385;SDS011;47256;18.904;-99.054;2022-09-20T12:55:33;9.23;;;3.13;;
61385;SDS011;47256;18.904;-99.054;2022-09-20T13:03:31;5.40;;;2.45;;
61385;SDS011;47256;18.904;-99.054;2022-09-20T13:11:18;12.88;;;2.28;;
61385;SDS011;47256;18.904;-99.054;2022-09-20T13:13:57;15.70;;;2.58;;
61385;SDS011;47256;18.904;-99.054;2022-09-20T13:19:16;9.52;;;2.55;;
61385;SDS011;47256;18.904;-99.054;2022-09-20T13:22:09;8.48;;;2.28;;
61385;SDS011;47256;18.904;-99.054;2022-09-20T13:24:49;9.93;;;2.78;;
61385;SDS011;47256;18.904;-99.054;2022-09-20T13:27:35;6.43;;;2.47;;
61385;SDS011;47256;18.904;-99.054;2022-09-20T13:30:17;5.93;;;2.20;;
61385;SDS011;47256;18.904;-99.054;2022-09-20T13:32:49;12.23;;;2.40;;
61385;SDS011;47256;18.904;-99.054;2022-09-20T13:37:54;10.15;;;3.67;;
61385;SDS011;47256;18.904;-99.054;2022-09-20T13:40:42;7.35;;;2.60;;
61385;SDS011;47256;18.904;-99.054;2022-09-20T13:43:28;14.40;;;3.55;;
61385;SDS011;47256;18.904;-99.054;2022-09-20T13:46:08;4.22;;;2.90;;
61385;SDS011;47256;18.904;-99.054;2022-09-20T13:48:37;7.20;;;3.13;;
61385;SDS011;47256;18.904;-99.054;2022-09-20T13:51:14;12.85;;;3.05;;
61385;SDS011;47256;18.904;-99.054;2022-09-20T13:53:51;7.18;;;3.25;;
61385;SDS011;47256;18.904;-99.054;2022-09-20T13:56:21;9.00;;;2.72;;
61385;SDS011;47256;18.904;-99.054;2022-09-20T13:58:55;6.80;;;2.78;;
61385;SDS011;47256;18.904;-99.054;2022-09-20T14:01:31;14.20;;;3.53;;
61385;SDS011;47256;18.904;-99.054;2022-09-20T14:04:04;7.22;;;3.00;;
61385;SDS011;47256;18.904;-99.054;2022-09-20T14:06:41;7.60;;;3.03;;
61385;SDS011;47256;18.904;-99.054;2022-09-20T14:09:45;9.60;;;3.58;;
61385;SDS011;47256;18.904;-99.054;2022-09-20T14:12:13;9.73;;;3.88;;
61385;SDS011;47256;18.904;-99.054;2022-09-20T14:14:46;14.32;;;2.72;;
61385;SDS011;47256;18.904;-99.054;2022-09-20T14:17:15;6.28;;;2.78;;
61385;SDS011;47256;18.904;-99.054;2022-09-20T14:19:45;5.95;;;2.88;;
61385;SDS011;47256;18.904;-99.054;2022-09-20T14:22:19;5.93;;;2.75;;
61385;SDS011;47256;18.904;-99.054;2022-09-20T14:25:00;5.85;;;2.58;;
61385;SDS011;47256;18.904;-99.054;2022-09-20T14:28:02;5.13;;;2.38;;
61385;SDS011;47256;18.904;-99.054;2022-09-20T14:30:43;8.10;;;2.10;;
61385;SDS011;47256;18.904;-99.054;2022-09-20T14:33:15;2.65;;;2.00;;
61385;SDS011;47256;18.904;-99.054;2022-09-20T14:35:49;4.25;;;2.20;;
61385;SDS011;47256;18.904;-99.054;2022-09-20T14:38:21;11.98;;;1.90;;
61385;SDS011;47256;18.904;-99.054;2022-09-20T14:40:52;7.93;;;2.40;;
61385;SDS011;47256;18.904;-99.054;2022-09-20T14:43:24;3.67;;;2.00;;
61385;SDS011;47256;18.904;-99.054;2022-09-20T14:45:58;9.27;;;2.88;;
61385;SDS011;47256;18.904;-99.054;2022-09-20T14:53:44;10.23;;;2.20;;
61385;SDS011;47256;18.904;-99.054;2022-09-20T14:56:14;7.78;;;3.45;;
61385;SDS011;47256;18.904;-99.054;2022-09-20T15:01:31;8.68;;;3.60;;
61385;SDS011;47256;18.904;-99.054;2022-09-20T15:04:16;9.85;;;3.22;;
61385;SDS011;47256;18.904;-99.054;2022-09-20T15:06:47;13.88;;;2.92;;
61385;SDS011;47256;18.904;-99.054;2022-09-20T15:09:15;4.63;;;2.72;;
61385;SDS011;47256;18.904;-99.054;2022-09-20T15:14:44;9.33;;;2.80;;
61385;SDS011;47256;18.904;-99.054;2022-09-20T15:17:15;7.75;;;4.28;;
61385;SDS011;47256;18.904;-99.054;2022-09-20T15:19:48;10.23;;;4.22;;
61385;SDS011;47256;18.904;-99.054;2022-09-20T15:22:23;10.45;;;3.80;;
61385;SDS011;47256;18.904;-99.054;2022-09-20T15:24:51;10.85;;;3.70;;
61385;SDS011;47256;18.904;-99.054;2022-09-20T15:27:18;7.38;;;3.33;;
61385;SDS011;47256;18.904;-99.054;2022-09-20T15:29:45;5.60;;;2.90;;
61385;SDS011;47256;18.904;-99.054;2022-09-20T15:32:13;6.50;;;2.55;;
61385;SDS011;47256;18.904;-99.054;2022-09-20T15:34:40;6.60;;;2.58;;
61385;SDS011;47256;18.904;-99.054;2022-09-20T15:37:07;5.85;;;2.65;;
61385;SDS011;47256;18.904;-99.054;2022-09-20T15:39:35;6.05;;;2.55;;
61385;SDS011;47256;18.904;-99.054;2022-09-20T15:42:02;4.00;;;2.50;;
61385;SDS011;47256;18.904;-99.054;2022-09-20T15:44:29;6.07;;;2.80;;
61385;SDS011;47256;18.904;-99.054;2022-09-20T15:46:57;7.75;;;2.40;;
61385;SDS011;47256;18.904;-99.054;2022-09-20T15:49:25;6.20;;;2.50;;
61385;SDS011;47256;18.904;-99.054;2022-09-20T15:51:53;7.93;;;2.50;;
61385;SDS011;47256;18.904;-99.054;2022-09-20T15:54:22;4.45;;;2.53;;
61385;SDS011;47256;18.904;-99.054;2022-09-20T15:56:51;5.32;;;2.55;;
61385;SDS011;47256;18.904;-99.054;2022-09-20T15:59:18;5.00;;;2.67;;
61385;SDS011;47256;18.904;-99.054;2022-09-20T16:01:47;8.10;;;2.58;;
61385;SDS011;47256;18.904;-99.054;2022-09-20T16:04:15;10.23;;;2.80;;
61385;SDS011;47256;18.904;-99.054;2022-09-20T16:06:45;5.35;;;2.17;;
61385;SDS011;47256;18.904;-99.054;2022-09-20T16:09:15;5.72;;;2.75;;
61385;SDS011;47256;18.904;-99.054;2022-09-20T16:11:42;6.95;;;2.88;;
61385;SDS011;47256;18.904;-99.054;2022-09-20T16:14:10;5.88;;;2.85;;
61385;SDS011;47256;18.904;-99.054;2022-09-20T16:16:37;3.35;;;2.60;;
61385;SDS011;47256;18.904;-99.054;2022-09-20T16:19:08;2.92;;;2.30;;
61385;SDS011;47256;18.904;-99.054;2022-09-20T16:21:47;5.50;;;2.90;;
61385;SDS011;47256;18.904;-99.054;2022-09-20T16:24:23;6.82;;;2.83;;
61385;SDS011;47256;18.904;-99.054;2022-09-20T16:26:52;4.25;;;2.90;;
61385;SDS011;47256;18.904;-99.054;2022-09-20T16:29:21;7.93;;;2.78;;
61385;SDS011;47256;18.904;-99.054;2022-09-20T16:31:50;5.57;;;2.88;;
61385;SDS011;47256;18.904;-99.054;2022-09-20T16:34:22;5.38;;;2.60;;
61385;SDS011;47256;18.904;-99.054;2022-09-20T16:37:01;6.13;;;3.45;;
61385;SDS011;47256;18.904;-99.054;2022-09-20T16:39:35;6.82;;;2.90;;
61385;SDS011;47256;18.904;-99.054;2022-09-20T16:42:04;6.82;;;3.00;;
61385;SDS011;47256;18.904;-99.054;2022-09-20T16:44:36;3.80;;;3.33;;
61385;SDS011;47256;18.904;-99.054;2022-09-20T16:47:05;9.85;;;3.20;;
61385;SDS011;47256;18.904;-99.054;2022-09-20T16:49:35;4.00;;;2.90;;
61385;SDS011;47256;18.904;-99.054;2022-09-20T16:52:06;4.53;;;2.65;;
61385;SDS011;47256;18.904;-99.054;2022-09-20T16:54:34;6.35;;;3.25;;
61385;SDS011;47256;18.904;-99.054;2022-09-20T16:57:01;5.65;;;3.55;;
61385;SDS011;47256;18.904;-99.054;2022-09-20T16:59:30;7.55;;;3.65;;
61385;SDS011;47256;18.904;-99.054;2022-09-20T17:01:57;6.97;;;3.10;;
61385;SDS011;47256;18.904;-99.054;2022-09-20T17:04:24;3.88;;;2.67;;
61385;SDS011;47256;18.904;-99.054;2022-09-20T17:06:51;7.10;;;3.15;;
61385;SDS011;47256;18.904;-99.054;2022-09-20T17:09:19;6.55;;;3.35;;
61385;SDS011;47256;18.904;-99.054;2022-09-20T17:11:47;3.92;;;2.92;;
61385;SDS011;47256;18.904;-99.054;2022-09-20T17:14:16;4.55;;;3.20;;
61385;SDS011;47256;18.904;-99.054;2022-09-20T17:16:44;9.40;;;3.08;;
61385;SDS011;47256;18.904;-99.054;2022-09-20T17:19:13;4.38;;;3.45;;
61385;SDS011;47256;18.904;-99.054;2022-09-20T17:21:43;6.20;;;4.00;;
61385;SDS011;47256;18.904;-99.054;2022-09-20T17:24:16;4.18;;;3.05;;
61385;SDS011;47256;18.904;-99.054;2022-09-20T17:26:48;7.38;;;3.13;;
61385;SDS011;47256;18.904;-99.054;2022-09-20T17:29:17;4.13;;;2.83;;
61385;SDS011;47256;18.904;-99.054;2022-09-20T17:31:49;6.13;;;3.58;;
61385;SDS011;47256;18.904;-99.054;2022-09-20T17:34:24;5.03;;;3.05;;
61385;SDS011;47256;18.904;-99.054;2022-09-20T17:36:51;8.77;;;4.35;;
61385;SDS011;47256;18.904;-99.054;2022-09-20T17:39:22;4.68;;;2.83;;
61385;SDS011;47256;18.904;-99.054;2022-09-20T17:41:52;8.57;;;3.72;;
61385;SDS011;47256;18.904;-99.054;2022-09-20T17:44:22;9.10;;;3.50;;
61385;SDS011;47256;18.904;-99.054;2022-09-20T17:46:50;8.50;;;4.82;;
61385;SDS011;47256;18.904;-99.054;2022-09-20T17:49:19;5.53;;;4.03;;
61385;SDS011;47256;18.904;-99.054;2022-09-20T17:51:51;7.60;;;4.13;;
61385;SDS011;47256;18.904;-99.054;2022-09-20T17:54:22;5.22;;;4.18;;
61385;SDS011;47256;18.904;-99.054;2022-09-20T17:56:50;10.57;;;4.70;;
61385;SDS011;47256;18.904;-99.054;2022-09-20T17:59:21;8.85;;;4.03;;
61385;SDS011;47256;18.904;-99.054;2022-09-20T18:01:49;5.97;;;4.28;;
61385;SDS011;47256;18.904;-99.054;2022-09-20T18:04:20;9.48;;;3.85;;
61385;SDS011;47256;18.904;-99.054;2022-09-20T18:06:49;8.30;;;4.55;;
61385;SDS011;47256;18.904;-99.054;2022-09-20T18:09:18;6.93;;;4.60;;
61385;SDS011;47256;18.904;-99.054;2022-09-20T18:11:47;8.02;;;4.65;;
61385;SDS011;47256;18.904;-99.054;2022-09-20T18:14:26;6.03;;;4.32;;
61385;SDS011;47256;18.904;-99.054;2022-09-20T18:16:56;6.90;;;4.45;;
61385;SDS011;47256;18.904;-99.054;2022-09-20T18:19:32;12.00;;;4.82;;
61385;SDS011;47256;18.904;-99.054;2022-09-20T18:24:32;10.15;;;3.45;;
61385;SDS011;47256;18.904;-99.054;2022-09-20T18:27:03;5.30;;;3.58;;
61385;SDS011;47256;18.904;-99.054;2022-09-20T18:29:30;9.07;;;3.58;;
61385;SDS011;47256;18.904;-99.054;2022-09-20T18:32:02;5.10;;;3.42;;
61385;SDS011;47256;18.904;-99.054;2022-09-20T18:34:29;6.70;;;3.70;;
61385;SDS011;47256;18.904;-99.054;2022-09-20T18:37:01;7.25;;;3.30;;
61385;SDS011;47256;18.904;-99.054;2022-09-20T18:39:31;9.68;;;3.40;;
61385;SDS011;47256;18.904;-99.054;2022-09-20T18:42:04;4.22;;;3.42;;
61385;SDS011;47256;18.904;-99.054;2022-09-20T18:44:32;6.45;;;3.22;;
61385;SDS011;47256;18.904;-99.054;2022-09-20T18:47:00;6.93;;;3.78;;
61385;SDS011;47256;18.904;-99.054;2022-09-20T18:49:30;4.68;;;3.20;;
61385;SDS011;47256;18.904;-99.054;2022-09-20T18:51:58;5.55;;;3.20;;
61385;SDS011;47256;18.904;-99.054;2022-09-20T18:54:25;9.38;;;3.72;;
61385;SDS011;47256;18.904;-99.054;2022-09-20T18:56:58;5.95;;;3.00;;
61385;SDS011;47256;18.904;-99.054;2022-09-20T18:59:25;7.00;;;4.00;;
61385;SDS011;47256;18.904;-99.054;2022-09-20T19:02:05;8.02;;;3.63;;
61385;SDS011;47256;18.904;-99.054;2022-09-20T19:05:05;7.65;;;3.35;;
61385;SDS011;47256;18.904;-99.054;2022-09-20T19:07:51;12.90;;;4.25;;
61385;SDS011;47256;18.904;-99.054;2022-09-20T19:10:45;5.35;;;3.97;;
61385;SDS011;47256;18.904;-99.054;2022-09-20T19:13:25;5.75;;;3.72;;
61385;SDS011;47256;18.904;-99.054;2022-09-20T19:16:04;8.57;;;3.92;;
61385;SDS011;47256;18.904;-99.054;2022-09-20T19:25:00;9.07;;;4.30;;
61385;SDS011;47256;18.904;-99.054;2022-09-20T19:27:32;7.90;;;4.28;;
61385;SDS011;47256;18.904;-99.054;2022-09-20T19:30:00;11.82;;;3.65;;
61385;SDS011;47256;18.904;-99.054;2022-09-20T19:32:29;5.47;;;4.50;;
61385;SDS011;47256;18.904;-99.054;2022-09-20T19:34:56;4.40;;;4.00;;
61385;SDS011;47256;18.904;-99.054;2022-09-20T19:45:55;5.10;;;3.63;;
61385;SDS011;47256;18.904;-99.054;2022-09-20T19:48:46;5.65;;;3.42;;
61385;SDS011;47256;18.904;-99.054;2022-09-20T19:51:35;10.40;;;3.20;;
61385;SDS011;47256;18.904;-99.054;2022-09-20T19:54:03;7.90;;;3.47;;
61385;SDS011;47256;18.904;-99.054;2022-09-20T19:56:41;5.65;;;3.60;;
61385;SDS011;47256;18.904;-99.054;2022-09-20T19:59:15;5.97;;;3.53;;
61385;SDS011;47256;18.904;-99.054;2022-09-20T20:01:45;5.35;;;3.40;;
61385;SDS011;47256;18.904;-99.054;2022-09-20T20:04:13;8.05;;;3.47;;
61385;SDS011;47256;18.904;-99.054;2022-09-20T20:06:57;5.93;;;3.25;;
61385;SDS011;47256;18.904;-99.054;2022-09-20T20:09:40;9.70;;;3.35;;
61385;SDS011;47256;18.904;-99.054;2022-09-20T20:12:17;6.00;;;3.40;;
61385;SDS011;47256;18.904;-99.054;2022-09-20T20:15:07;8.32;;;3.53;;
61385;SDS011;47256;18.904;-99.054;2022-09-20T20:20:24;6.00;;;3.38;;
61385;SDS011;47256;18.904;-99.054;2022-09-20T20:26:16;6.50;;;3.80;;
61385;SDS011;47256;18.904;-99.054;2022-09-20T20:28:50;7.13;;;3.85;;
61385;SDS011;47256;18.904;-99.054;2022-09-20T20:31:18;5.05;;;3.63;;
61385;SDS011;47256;18.904;-99.054;2022-09-20T20:33:46;5.88;;;3.88;;